createdAt,value
2018-07-20T00:01:58.196Z,16.91
2018-07-20T00:04:27.410Z,16.91
2018-07-20T00:06:56.546Z,16.93
2018-07-20T00:09:25.712Z,16.95
2018-07-20T00:11:54.882Z,16.94
2018-07-20T00:14:25.650Z,16.93
2018-07-20T00:16:54.809Z,16.87
2018-07-20T00:19:24.001Z,16.86
2018-07-20T00:21:53.241Z,16.83
2018-07-20T00:24:22.396Z,16.82
2018-07-20T00:26:51.593Z,16.81
2018-07-20T00:29:20.842Z,16.80
2018-07-20T00:31:50.031Z,16.76
2018-07-20T00:34:19.259Z,16.72
2018-07-20T00:36:48.484Z,16.70
2018-07-20T00:39:17.681Z,16.66
2018-07-20T00:41:47.001Z,16.63
2018-07-20T00:44:16.139Z,16.60
2018-07-20T00:46:45.431Z,16.57
2018-07-20T00:49:14.608Z,16.52
2018-07-20T00:51:43.800Z,16.38
2018-07-20T00:54:13.247Z,16.35
2018-07-20T00:56:42.459Z,16.31
2018-07-20T00:59:11.635Z,16.26
2018-07-20T01:01:40.792Z,16.26
2018-07-20T01:04:10.010Z,16.23
2018-07-20T01:06:39.187Z,16.21
2018-07-20T01:09:09.733Z,16.18
2018-07-20T01:11:39.271Z,16.12
2018-07-20T01:14:08.476Z,16.09
2018-07-20T01:16:37.641Z,16.08
2018-07-20T01:19:06.893Z,16.07
2018-07-20T01:21:36.077Z,16.04
2018-07-20T01:24:05.290Z,16.01
2018-07-20T01:26:34.471Z,16.00
2018-07-20T01:29:03.622Z,15.95
2018-07-20T01:31:32.804Z,15.88
2018-07-20T01:34:02.419Z,15.90
2018-07-20T01:36:31.619Z,15.90
2018-07-20T01:39:00.870Z,15.90
2018-07-20T01:41:30.052Z,15.90
2018-07-20T01:43:59.219Z,15.88
2018-07-20T01:46:28.378Z,15.82
2018-07-20T01:48:57.598Z,15.80
2018-07-20T01:51:26.741Z,15.78
2018-07-20T01:53:55.916Z,15.76
2018-07-20T01:56:25.122Z,15.73
2018-07-20T01:58:54.288Z,15.70
2018-07-20T02:01:23.455Z,15.63
2018-07-20T02:03:52.632Z,15.65
2018-07-20T02:06:21.908Z,15.61
2018-07-20T02:08:51.067Z,15.56
2018-07-20T02:11:20.237Z,15.52
2018-07-20T02:13:49.385Z,15.46
2018-07-20T02:16:18.538Z,15.44
2018-07-20T02:18:47.838Z,15.44
2018-07-20T02:21:17.006Z,15.43
2018-07-20T02:23:46.197Z,15.44
2018-07-20T02:26:15.371Z,15.40
2018-07-20T02:28:44.634Z,15.43
2018-07-20T02:31:13.798Z,15.42
2018-07-20T02:33:42.965Z,15.42
2018-07-20T02:36:12.161Z,15.40
2018-07-20T02:38:41.326Z,15.38
2018-07-20T02:41:10.849Z,15.31
2018-07-20T02:43:40.122Z,15.35
2018-07-20T02:46:09.360Z,15.30
2018-07-20T02:48:38.524Z,15.29
2018-07-20T02:51:07.935Z,15.23
2018-07-20T02:53:37.090Z,15.20
2018-07-20T02:56:06.262Z,15.20
2018-07-20T02:58:35.412Z,15.20
2018-07-20T03:01:04.609Z,15.18
2018-07-20T03:03:33.872Z,15.21
2018-07-20T03:06:03.061Z,15.21
2018-07-20T03:08:32.206Z,15.22
2018-07-20T03:11:01.384Z,15.13
2018-07-20T03:13:30.533Z,15.08
2018-07-20T03:15:59.819Z,15.07
2018-07-20T03:18:28.958Z,15.06
2018-07-20T03:20:58.132Z,15.06
2018-07-20T03:23:27.334Z,14.99
2018-07-20T03:25:56.579Z,15.00
2018-07-20T03:28:25.720Z,14.98
2018-07-20T03:30:54.858Z,14.99
2018-07-20T03:33:24.064Z,15.00
2018-07-20T03:35:53.184Z,15.02
2018-07-20T03:38:22.338Z,15.00
2018-07-20T03:40:53.287Z,15.00
2018-07-20T03:43:22.449Z,15.00
2018-07-20T03:45:51.620Z,14.93
2018-07-20T03:48:20.796Z,14.95
2018-07-20T03:50:49.957Z,14.98
2018-07-20T03:53:19.117Z,14.97
2018-07-20T03:55:48.282Z,15.02
2018-07-20T03:58:17.440Z,15.03
2018-07-20T04:00:46.584Z,15.04
2018-07-20T04:03:15.787Z,15.08
2018-07-20T04:05:44.929Z,15.13
2018-07-20T04:08:14.187Z,15.15
2018-07-20T04:10:43.405Z,15.20
2018-07-20T04:13:12.707Z,15.23
2018-07-20T04:15:42.340Z,15.30
2018-07-20T04:18:11.516Z,15.36
2018-07-20T04:20:40.652Z,15.42
2018-07-20T04:23:10.749Z,15.46
2018-07-20T04:25:39.916Z,15.54
2018-07-20T04:28:09.060Z,15.61
2018-07-20T04:30:38.212Z,15.68
2018-07-20T04:33:07.508Z,15.80
2018-07-20T04:35:36.679Z,15.89
2018-07-20T04:38:05.909Z,15.99
2018-07-20T04:40:35.118Z,16.09
2018-07-20T04:43:04.316Z,16.13
2018-07-20T04:45:33.487Z,16.20
2018-07-20T04:48:02.689Z,16.28
2018-07-20T04:50:31.866Z,16.38
2018-07-20T04:53:01.024Z,16.47
2018-07-20T04:55:30.225Z,16.55
2018-07-20T04:57:59.384Z,16.64
2018-07-20T05:00:28.953Z,16.70
2018-07-20T05:02:58.516Z,16.74
2018-07-20T05:05:27.698Z,16.62
2018-07-20T05:07:56.836Z,16.94
2018-07-20T05:10:26.021Z,17.01
2018-07-20T05:12:55.239Z,17.08
2018-07-20T05:15:24.406Z,17.15
2018-07-20T05:17:53.580Z,17.25
2018-07-20T05:20:22.766Z,17.34
2018-07-20T05:22:51.939Z,17.43
2018-07-20T05:25:21.130Z,17.50
2018-07-20T05:27:50.337Z,17.60
2018-07-20T05:30:19.747Z,17.68
2018-07-20T05:32:48.994Z,17.80
2018-07-20T05:35:18.369Z,17.89
2018-07-20T05:37:47.543Z,17.93
2018-07-20T05:40:16.725Z,18.04
2018-07-20T05:42:46.370Z,18.17
2018-07-20T05:45:15.515Z,18.28
2018-07-20T05:47:45.541Z,18.38
2018-07-20T05:50:15.005Z,18.52
2018-07-20T05:52:44.182Z,18.59
2018-07-20T05:55:13.688Z,18.63
2018-07-20T05:57:42.888Z,18.72
2018-07-20T06:00:12.102Z,18.89
2018-07-20T06:02:41.319Z,18.98
2018-07-20T06:05:10.651Z,19.11
2018-07-20T06:07:39.766Z,19.19
2018-07-20T06:10:09.072Z,19.30
2018-07-20T06:12:39.148Z,19.42
2018-07-20T06:15:08.533Z,19.71
2018-07-20T06:17:37.697Z,20.16
2018-07-20T06:20:08.816Z,20.53
2018-07-20T06:22:38.554Z,20.78
2018-07-20T06:25:08.010Z,20.94
2018-07-20T06:27:37.221Z,21.12
2018-07-20T06:30:07.171Z,21.23
2018-07-20T06:32:36.676Z,21.37
2018-07-20T06:35:05.906Z,21.50
2018-07-20T06:37:35.093Z,21.56
2018-07-20T06:40:04.336Z,21.61
2018-07-20T06:42:33.726Z,21.61
2018-07-20T06:45:02.878Z,21.61
2018-07-20T06:47:32.043Z,21.66
2018-07-20T06:50:01.245Z,21.86
2018-07-20T06:52:30.437Z,21.97
2018-07-20T06:54:59.583Z,22.07
2018-07-20T06:57:28.777Z,22.14
2018-07-20T06:59:57.996Z,22.07
2018-07-20T07:02:27.138Z,22.04
2018-07-20T07:04:57.683Z,22.06
2018-07-20T07:07:26.860Z,22.23
2018-07-20T07:09:56.045Z,22.33
2018-07-20T07:12:25.168Z,22.49
2018-07-20T07:14:54.362Z,22.51
2018-07-20T07:17:23.505Z,22.61
2018-07-20T07:19:52.641Z,22.87
2018-07-20T07:22:21.888Z,22.94
2018-07-20T07:24:50.942Z,23.08
2018-07-20T07:27:20.051Z,23.15
2018-07-20T07:29:49.319Z,23.17
2018-07-20T07:32:18.451Z,23.27
2018-07-20T07:34:47.738Z,23.32
2018-07-20T07:37:16.925Z,23.35
2018-07-20T07:39:46.138Z,23.52
2018-07-20T07:42:15.374Z,23.66
2018-07-20T07:44:44.491Z,23.79
2018-07-20T07:47:13.690Z,23.95
2018-07-20T07:49:42.820Z,24.12
2018-07-20T07:52:11.961Z,24.13
2018-07-20T07:54:41.094Z,24.10
2018-07-20T07:57:10.982Z,24.07
2018-07-20T07:59:40.182Z,24.06
2018-07-20T08:02:09.440Z,24.05
2018-07-20T08:04:38.628Z,24.14
2018-07-20T08:07:07.825Z,24.29
2018-07-20T08:09:37.044Z,24.27
2018-07-20T08:12:06.330Z,24.32
2018-07-20T08:14:35.658Z,24.48
2018-07-20T08:17:04.918Z,24.58
2018-07-20T08:19:34.109Z,24.78
2018-07-20T08:22:03.265Z,24.90
2018-07-20T08:24:32.417Z,25.05
2018-07-20T08:27:01.561Z,24.90
2018-07-20T08:29:30.817Z,24.99
2018-07-20T08:31:59.952Z,25.24
2018-07-20T08:34:29.123Z,25.40
2018-07-20T08:36:58.283Z,25.54
2018-07-20T08:39:27.522Z,25.61
2018-07-20T08:41:56.725Z,25.50
2018-07-20T08:44:25.998Z,25.46
2018-07-20T08:46:55.317Z,25.30
2018-07-20T08:49:24.581Z,25.48
2018-07-20T08:51:53.753Z,25.53
2018-07-20T08:54:22.877Z,25.78
2018-07-20T08:56:52.145Z,25.98
2018-07-20T08:59:21.310Z,25.96
2018-07-20T09:01:50.438Z,26.35
2018-07-20T09:04:19.614Z,26.59
2018-07-20T09:06:48.869Z,26.70
2018-07-20T09:09:18.045Z,26.85
2018-07-20T09:11:48.113Z,27.06
2018-07-20T09:14:17.292Z,27.12
2018-07-20T09:16:46.554Z,27.20
2018-07-20T09:19:15.707Z,27.27
2018-07-20T09:21:44.893Z,27.29
2018-07-20T09:24:14.170Z,27.35
2018-07-20T09:26:43.671Z,27.44
2018-07-20T09:29:12.886Z,27.50
2018-07-20T09:31:42.223Z,27.74
2018-07-20T09:34:13.841Z,27.85
2018-07-20T09:36:42.982Z,28.18
2018-07-20T09:39:12.692Z,28.41
2018-07-20T09:41:41.921Z,28.51
2018-07-20T09:44:11.119Z,28.31
2018-07-20T09:46:40.269Z,28.41
2018-07-20T09:49:09.736Z,28.35
2018-07-20T09:51:40.738Z,28.38
2018-07-20T09:54:11.507Z,28.58
2018-07-20T09:56:41.129Z,28.84
2018-07-20T09:59:11.320Z,28.72
2018-07-20T10:01:40.547Z,28.80
2018-07-20T10:04:09.769Z,28.95
2018-07-20T10:06:38.941Z,29.03
2018-07-20T10:09:10.646Z,29.12
2018-07-20T10:11:39.780Z,29.39
2018-07-20T10:14:09.068Z,29.47
2018-07-20T10:16:38.388Z,29.64
2018-07-20T10:19:07.880Z,29.75
2018-07-20T10:21:37.180Z,29.96
2018-07-20T10:24:06.446Z,30.03
2018-07-20T10:26:35.617Z,30.15
2018-07-20T10:29:04.814Z,29.88
2018-07-20T10:31:34.056Z,29.91
2018-07-20T10:34:03.224Z,30.25
2018-07-20T10:36:32.409Z,29.79
2018-07-20T10:39:01.565Z,29.49
2018-07-20T10:41:30.752Z,29.69
2018-07-20T10:44:00.022Z,29.78
2018-07-20T10:46:29.179Z,30.14
2018-07-20T10:48:58.360Z,30.31
2018-07-20T10:51:27.558Z,30.35
2018-07-20T10:53:56.746Z,30.54
2018-07-20T10:56:25.947Z,30.97
2018-07-20T10:58:55.391Z,31.18
2018-07-20T11:01:24.588Z,30.98
2018-07-20T11:03:53.756Z,31.19
2018-07-20T11:06:22.958Z,31.32
2018-07-20T11:08:52.129Z,31.33
2018-07-20T11:11:21.361Z,31.41
2018-07-20T11:13:50.492Z,31.51
2018-07-20T11:16:19.662Z,31.62
2018-07-20T11:18:48.816Z,31.65
2018-07-20T11:21:18.151Z,31.83
2018-07-20T11:23:47.454Z,31.87
2018-07-20T11:26:16.623Z,31.71
2018-07-20T11:28:45.783Z,31.09
2018-07-20T11:31:14.985Z,30.80
2018-07-20T11:33:44.146Z,31.04
2018-07-20T11:36:13.465Z,30.92
2018-07-20T11:38:42.617Z,30.87
2018-07-20T11:41:11.743Z,31.05
2018-07-20T11:43:40.886Z,31.24
2018-07-20T11:46:10.043Z,30.97
2018-07-20T11:48:39.375Z,31.16
2018-07-20T11:51:08.693Z,31.00
2018-07-20T11:53:37.891Z,30.64
2018-07-20T11:56:07.035Z,30.70
2018-07-20T11:58:36.179Z,31.00
2018-07-20T12:01:05.384Z,31.15
2018-07-20T12:03:34.591Z,31.17
2018-07-20T12:06:04.270Z,31.26
2018-07-20T12:08:33.452Z,30.98
2018-07-20T12:11:02.628Z,30.80
2018-07-20T12:13:31.814Z,30.84
2018-07-20T12:16:01.003Z,30.89
2018-07-20T12:18:30.133Z,30.99
2018-07-20T12:20:59.458Z,31.32
2018-07-20T12:23:28.614Z,31.43
2018-07-20T12:25:57.776Z,31.35
2018-07-20T12:28:26.927Z,31.66
2018-07-20T12:30:56.086Z,31.22
2018-07-20T12:33:25.253Z,31.28
2018-07-20T12:35:54.448Z,31.65
2018-07-20T12:38:23.572Z,31.95
2018-07-20T12:40:52.749Z,32.02
2018-07-20T12:43:21.909Z,32.03
2018-07-20T12:45:51.043Z,32.15
2018-07-20T12:48:20.216Z,32.18
2018-07-20T12:50:49.404Z,32.07
2018-07-20T12:53:18.677Z,31.91
2018-07-20T12:55:47.837Z,31.71
2018-07-20T12:58:16.991Z,31.89
2018-07-20T13:00:46.107Z,31.60
2018-07-20T13:03:15.267Z,31.59
2018-07-20T13:05:44.448Z,31.52
2018-07-20T13:08:13.655Z,31.45
2018-07-20T13:10:42.814Z,31.27
2018-07-20T13:13:11.960Z,31.20
2018-07-20T13:15:41.158Z,31.22
2018-07-20T13:18:10.491Z,31.60
2018-07-20T13:20:39.587Z,31.68
2018-07-20T13:23:08.936Z,31.64
2018-07-20T13:25:38.124Z,31.63
2018-07-20T13:28:07.332Z,31.71
2018-07-20T13:30:36.515Z,31.34
2018-07-20T13:33:05.707Z,31.41
2018-07-20T13:35:34.873Z,31.26
2018-07-20T13:38:04.663Z,31.36
2018-07-20T13:40:33.834Z,31.54
2018-07-20T13:43:03.060Z,31.84
2018-07-20T13:45:32.252Z,31.86
2018-07-20T13:48:01.390Z,32.02
2018-07-20T13:50:30.773Z,32.06
2018-07-20T13:53:00.062Z,32.06
2018-07-20T13:55:29.345Z,32.18
2018-07-20T13:57:58.541Z,32.12
2018-07-20T14:00:27.689Z,32.14
2018-07-20T14:02:56.885Z,32.18
2018-07-20T14:05:26.054Z,31.81
2018-07-20T14:07:55.186Z,31.81
2018-07-20T14:10:24.315Z,31.91
2018-07-20T14:12:53.472Z,31.79
2018-07-20T14:15:22.659Z,31.73
2018-07-20T14:17:51.809Z,31.33
2018-07-20T14:20:20.980Z,31.08
2018-07-20T14:22:50.190Z,31.29
2018-07-20T14:25:19.393Z,31.03
2018-07-20T14:27:48.566Z,31.06
2018-07-20T14:30:17.742Z,30.93
2018-07-20T14:32:46.863Z,31.06
2018-07-20T14:35:16.060Z,31.29
2018-07-20T14:37:45.225Z,31.24
2018-07-20T14:40:14.459Z,31.08
2018-07-20T14:42:43.644Z,31.03
2018-07-20T14:45:12.820Z,30.84
2018-07-20T14:47:41.969Z,30.76
2018-07-20T14:50:11.154Z,30.79
2018-07-20T14:52:40.427Z,30.76
2018-07-20T14:55:09.602Z,30.81
2018-07-20T14:57:38.726Z,31.01
2018-07-20T15:00:07.942Z,31.19
2018-07-20T15:02:37.099Z,31.27
2018-07-20T15:05:06.447Z,31.25
2018-07-20T15:07:35.603Z,31.29
2018-07-20T15:10:04.858Z,31.15
2018-07-20T15:12:34.098Z,31.24
2018-07-20T15:15:03.275Z,31.38
2018-07-20T15:17:32.415Z,31.16
2018-07-20T15:20:01.578Z,31.02
2018-07-20T15:22:30.782Z,30.86
2018-07-20T15:25:00.002Z,30.86
2018-07-20T15:27:29.186Z,30.73
2018-07-20T15:29:58.459Z,30.51
2018-07-20T15:32:27.701Z,30.63
2018-07-20T15:34:57.007Z,30.64
2018-07-20T15:37:26.216Z,30.58
2018-07-20T15:39:55.483Z,30.76
2018-07-20T15:42:24.828Z,30.68
2018-07-20T15:44:54.028Z,30.71
2018-07-20T15:47:23.285Z,30.44
2018-07-20T15:49:52.353Z,30.41
2018-07-20T15:54:50.768Z,30.41
2018-07-20T15:57:19.941Z,30.31
2018-07-20T15:59:49.249Z,30.34
2018-07-20T16:02:18.349Z,30.24
2018-07-20T16:04:47.587Z,30.20
2018-07-20T16:07:18.336Z,30.17
2018-07-20T16:09:47.497Z,30.03
2018-07-20T16:12:16.688Z,29.98
2018-07-20T16:14:45.878Z,30.01
2018-07-20T16:17:15.083Z,30.07
2018-07-20T16:19:44.284Z,30.04
2018-07-20T16:22:13.481Z,29.97
2018-07-20T16:24:42.790Z,29.77
2018-07-20T16:27:12.062Z,29.67
2018-07-20T16:29:41.245Z,29.67
2018-07-20T16:32:10.528Z,29.71
2018-07-20T16:34:39.713Z,29.81
2018-07-20T16:37:09.599Z,29.78
2018-07-20T16:39:38.837Z,29.81
2018-07-20T16:42:08.267Z,29.71
2018-07-20T16:44:37.433Z,29.64
2018-07-20T16:47:06.769Z,29.58
2018-07-20T16:49:35.937Z,29.48
2018-07-20T16:52:05.174Z,29.50
2018-07-20T16:54:34.340Z,29.46
2018-07-20T16:57:03.485Z,29.38
2018-07-20T16:59:32.113Z,29.32
2018-07-20T17:02:01.430Z,29.29
2018-07-20T17:04:30.579Z,29.25
2018-07-20T17:06:59.720Z,29.24
2018-07-20T17:09:28.922Z,29.20
2018-07-20T17:11:58.073Z,29.16
2018-07-20T17:14:27.232Z,29.16
2018-07-20T17:16:56.411Z,29.07
2018-07-20T17:19:25.566Z,29.00
2018-07-20T17:21:54.751Z,28.91
2018-07-20T17:24:23.906Z,28.88
2018-07-20T17:26:53.072Z,28.88
2018-07-20T17:29:22.336Z,28.87
2018-07-20T17:31:51.572Z,28.79
2018-07-20T17:34:20.777Z,28.75
2018-07-20T17:36:49.941Z,28.67
2018-07-20T17:39:19.144Z,28.55
2018-07-20T17:41:48.354Z,28.49
2018-07-20T17:44:17.495Z,28.41
2018-07-20T17:46:46.725Z,28.34
2018-07-20T17:49:15.863Z,28.26
2018-07-20T17:51:45.008Z,28.20
2018-07-20T17:54:14.182Z,28.09
2018-07-20T17:56:43.367Z,28.03
2018-07-20T17:59:12.529Z,27.94
2018-07-20T18:01:41.695Z,27.84
2018-07-20T18:04:10.849Z,27.75
2018-07-20T18:06:40.109Z,27.66
2018-07-20T18:09:10.582Z,27.52
2018-07-20T18:11:39.752Z,27.37
2018-07-20T18:14:09.637Z,27.19
2018-07-20T18:16:38.807Z,27.03
2018-07-20T18:19:08.177Z,26.62
2018-07-20T18:21:37.350Z,26.34
2018-07-20T18:24:06.663Z,26.13
2018-07-20T18:26:35.861Z,25.92
2018-07-20T18:29:05.141Z,25.68
2018-07-20T18:31:34.277Z,25.38
2018-07-20T18:34:03.855Z,25.22
2018-07-20T18:36:33.046Z,25.11
2018-07-20T18:39:02.269Z,25.02
2018-07-20T18:41:31.524Z,24.91
2018-07-20T18:44:00.721Z,24.79
2018-07-20T18:46:29.892Z,24.62
2018-07-20T18:48:59.053Z,24.48
2018-07-20T18:51:28.211Z,24.31
2018-07-20T18:53:57.359Z,24.18
2018-07-20T18:56:26.583Z,24.00
2018-07-20T18:58:55.786Z,23.87
2018-07-20T19:01:25.638Z,23.82
2018-07-20T19:03:54.870Z,23.78
2018-07-20T19:06:24.181Z,23.73
2018-07-20T19:08:53.597Z,23.66
2018-07-20T19:11:22.801Z,23.56
2018-07-20T19:13:54.143Z,23.47
2018-07-20T19:16:31.448Z,23.32
2018-07-20T19:19:03.431Z,23.14
2018-07-20T19:21:33.735Z,22.97
2018-07-20T19:24:02.906Z,22.84
2018-07-20T19:26:32.816Z,22.79
2018-07-20T19:29:03.862Z,22.74
2018-07-20T19:31:33.017Z,22.75
2018-07-20T19:34:03.067Z,22.74
2018-07-20T19:36:32.815Z,22.68
2018-07-20T19:39:02.237Z,22.64
2018-07-20T19:41:31.391Z,22.60
2018-07-20T19:44:00.583Z,22.37
2018-07-20T19:46:29.758Z,22.25
2018-07-20T19:48:58.924Z,22.20
2018-07-20T19:51:28.140Z,22.19
2018-07-20T19:53:57.361Z,22.21
2018-07-20T19:56:26.525Z,22.20
2018-07-20T19:58:55.756Z,22.14
2018-07-20T20:01:24.902Z,22.10
2018-07-20T20:03:54.170Z,22.16
2018-07-20T20:06:23.300Z,22.14
2018-07-20T20:08:52.474Z,22.09
2018-07-20T20:11:29.849Z,22.07
2018-07-20T20:13:58.979Z,21.99
2018-07-20T20:16:28.141Z,21.93
2018-07-20T20:18:57.370Z,21.85
2018-07-20T20:21:26.510Z,21.75
2018-07-20T20:23:55.674Z,21.69
2018-07-20T20:26:24.887Z,21.42
2018-07-20T20:28:54.113Z,21.24
2018-07-20T20:31:23.402Z,21.14
2018-07-20T20:33:52.640Z,20.98
2018-07-20T20:36:21.927Z,20.90
2018-07-20T20:38:52.309Z,20.83
2018-07-20T20:41:21.524Z,20.78
2018-07-20T20:43:50.686Z,20.76
2018-07-20T20:46:19.820Z,20.73
2018-07-20T20:48:49.099Z,20.68
2018-07-20T20:51:18.243Z,20.63
2018-07-20T20:53:47.479Z,20.57
2018-07-20T20:56:16.604Z,20.52
2018-07-20T20:58:45.985Z,20.46
2018-07-20T21:01:15.180Z,20.30
2018-07-20T21:03:44.438Z,20.14
2018-07-20T21:06:13.616Z,20.06
2018-07-20T21:08:42.744Z,20.03
2018-07-20T21:11:12.005Z,20.00
2018-07-20T21:13:41.153Z,19.94
2018-07-20T21:16:10.329Z,19.88
2018-07-20T21:18:39.597Z,19.81
2018-07-20T21:21:09.001Z,19.81
2018-07-20T21:23:38.173Z,19.77
2018-07-20T21:26:07.322Z,19.73
2018-07-20T21:28:36.461Z,19.67
2018-07-20T21:31:05.775Z,19.64
2018-07-20T21:33:34.992Z,19.58
2018-07-20T21:36:04.206Z,19.53
2018-07-20T21:38:33.356Z,19.44
2018-07-20T21:41:02.561Z,19.34
2018-07-20T21:43:31.769Z,19.32
2018-07-20T21:46:00.921Z,19.11
2018-07-20T21:48:30.091Z,19.28
2018-07-20T21:50:59.240Z,19.26
2018-07-20T21:53:28.387Z,19.23
2018-07-20T21:55:57.521Z,19.22
2018-07-20T21:58:26.759Z,19.15
2018-07-20T22:00:55.930Z,19.13
2018-07-20T22:03:25.250Z,19.08
2018-07-20T22:05:54.402Z,19.05
2018-07-20T22:08:23.585Z,19.07
2018-07-20T22:10:52.740Z,19.09
2018-07-20T22:13:21.874Z,19.04
2018-07-20T22:15:51.060Z,19.05
2018-07-20T22:18:20.239Z,19.05
2018-07-20T22:20:49.387Z,19.02
2018-07-20T22:23:18.625Z,19.00
2018-07-20T22:25:47.798Z,18.99
2018-07-20T22:28:16.924Z,18.95
2018-07-20T22:30:46.133Z,18.83
2018-07-20T22:33:15.321Z,18.74
2018-07-20T22:35:44.519Z,18.63
2018-07-20T22:38:13.712Z,18.55
2018-07-20T22:40:43.040Z,18.53
2018-07-20T22:43:12.245Z,18.48
2018-07-20T22:45:41.531Z,18.44
2018-07-20T22:48:10.831Z,18.40
2018-07-20T22:50:39.987Z,18.33
2018-07-20T22:53:09.230Z,18.19
2018-07-20T22:55:38.426Z,18.09
2018-07-20T22:58:07.609Z,18.06
2018-07-20T23:00:36.781Z,18.06
2018-07-20T23:03:06.158Z,18.07
2018-07-20T23:05:35.358Z,18.08
2018-07-20T23:08:04.758Z,18.08
2018-07-20T23:10:33.926Z,18.10
2018-07-20T23:13:03.077Z,18.11
2018-07-20T23:15:32.329Z,18.10
2018-07-20T23:18:01.472Z,18.04
2018-07-20T23:20:30.610Z,18.00
2018-07-20T23:22:59.766Z,17.97
2018-07-20T23:25:29.869Z,17.93
2018-07-20T23:27:59.036Z,17.86
2018-07-20T23:30:28.187Z,17.80
2018-07-20T23:32:57.356Z,17.76
2018-07-20T23:35:26.661Z,17.74
2018-07-20T23:37:55.825Z,17.70
2018-07-20T23:40:25.057Z,17.68
2018-07-20T23:42:54.261Z,17.65
2018-07-20T23:45:23.400Z,17.58
2018-07-20T23:47:52.572Z,17.52
2018-07-20T23:50:21.750Z,17.46
2018-07-20T23:52:50.909Z,17.41
2018-07-20T23:55:20.111Z,17.35
2018-07-20T23:57:49.269Z,17.26
